sensor_id;sensor_type;location;lat;lon;timestamp;pressure;altitude;pressure_sealevel;temperature;humidity
10462;BME280;5278;42.656;23.374;2023-02-22T00:00:34;94616.00;;;10.17;46.65
10462;BME280;5278;42.656;23.374;2023-02-22T00:03:09;94593.19;;;10.04;46.49
10462;BME280;5278;42.656;23.374;2023-02-22T00:05:37;94616.81;;;10.17;46.44
10462;BME280;5278;42.656;23.374;2023-02-22T00:08:06;94626.44;;;10.31;46.16
10462;BME280;5278;42.656;23.374;2023-02-22T00:10:34;94597.50;;;10.12;46.18
10462;BME280;5278;42.656;23.374;2023-02-22T00:13:08;94605.28;;;10.12;46.52
10462;BME280;5278;42.656;23.374;2023-02-22T00:15:37;94657.13;;;10.36;46.76
10462;BME280;5278;42.656;23.374;2023-02-22T00:18:07;94632.63;;;10.30;46.51
10462;BME280;5278;42.656;23.374;2023-02-22T00:20:35;94633.75;;;10.36;46.88
10462;BME280;5278;42.656;23.374;2023-02-22T00:23:04;94629.63;;;10.42;46.78
10462;BME280;5278;42.656;23.374;2023-02-22T00:25:32;94628.47;;;10.44;46.83
10462;BME280;5278;42.656;23.374;2023-02-22T00:28:00;94575.47;;;10.16;46.85
10462;BME280;5278;42.656;23.374;2023-02-22T00:30:30;94595.94;;;10.33;46.29
10462;BME280;5278;42.656;23.374;2023-02-22T00:32:59;94644.63;;;10.54;46.63
10462;BME280;5278;42.656;23.374;2023-02-22T00:35:29;94616.59;;;10.50;47.45
10462;BME280;5278;42.656;23.374;2023-02-22T00:37:59;94616.06;;;10.54;46.80
10462;BME280;5278;42.656;23.374;2023-02-22T00:40:29;94615.25;;;10.54;46.87
10462;BME280;5278;42.656;23.374;2023-02-22T00:42:57;94610.44;;;10.51;46.72
10462;BME280;5278;42.656;23.374;2023-02-22T00:45:26;94636.19;;;10.52;47.00
10462;BME280;5278;42.656;23.374;2023-02-22T00:47:54;94602.72;;;10.57;46.83
10462;BME280;5278;42.656;23.374;2023-02-22T00:50:24;94600.59;;;10.61;46.91
10462;BME280;5278;42.656;23.374;2023-02-22T00:52:53;94570.16;;;10.47;46.50
10462;BME280;5278;42.656;23.374;2023-02-22T00:55:22;94589.84;;;10.64;46.82
10462;BME280;5278;42.656;23.374;2023-02-22T00:57:49;94588.97;;;10.71;46.63
10462;BME280;5278;42.656;23.374;2023-02-22T01:00:18;94600.81;;;10.74;46.22
10462;BME280;5278;42.656;23.374;2023-02-22T01:02:46;94589.59;;;10.73;46.62
10462;BME280;5278;42.656;23.374;2023-02-22T01:05:16;94584.56;;;10.72;47.27
10462;BME280;5278;42.656;23.374;2023-02-22T01:07:44;94585.75;;;10.69;47.45
10462;BME280;5278;42.656;23.374;2023-02-22T01:10:12;94573.91;;;10.67;47.44
10462;BME280;5278;42.656;23.374;2023-02-22T01:12:40;94576.50;;;10.67;47.30
10462;BME280;5278;42.656;23.374;2023-02-22T01:15:08;94574.34;;;10.56;47.42
10462;BME280;5278;42.656;23.374;2023-02-22T01:17:37;94567.53;;;10.55;47.33
10462;BME280;5278;42.656;23.374;2023-02-22T01:20:05;94572.25;;;10.51;48.29
10462;BME280;5278;42.656;23.374;2023-02-22T01:22:37;94578.44;;;10.50;48.06
10462;BME280;5278;42.656;23.374;2023-02-22T01:25:07;94569.88;;;10.42;48.05
10462;BME280;5278;42.656;23.374;2023-02-22T01:27:34;94555.16;;;11.89;70.48
10462;BME280;5278;42.656;23.374;2023-02-22T01:30:02;94556.47;;;14.14;56.04
10462;BME280;5278;42.656;23.374;2023-02-22T01:32:33;94526.13;;;15.05;47.76
10462;BME280;5278;42.656;23.374;2023-02-22T01:35:01;94493.13;;;16.38;41.97
10462;BME280;5278;42.656;23.374;2023-02-22T01:37:29;94531.94;;;17.64;38.13
10462;BME280;5278;42.656;23.374;2023-02-22T01:39:56;94533.31;;;18.45;35.32
10462;BME280;5278;42.656;23.374;2023-02-22T01:42:24;94542.25;;;18.97;33.18
10462;BME280;5278;42.656;23.374;2023-02-22T01:45:32;94542.50;;;19.30;32.13
10462;BME280;5278;42.656;23.374;2023-02-22T01:48:06;94538.47;;;19.63;31.13
10462;BME280;5278;42.656;23.374;2023-02-22T01:50:36;94547.25;;;19.80;30.66
10462;BME280;5278;42.656;23.374;2023-02-22T01:53:07;94541.00;;;19.98;30.09
10462;BME280;5278;42.656;23.374;2023-02-22T01:55:35;94549.91;;;18.99;29.72
10462;BME280;5278;42.656;23.374;2023-02-22T01:58:06;94544.53;;;17.62;31.17
10462;BME280;5278;42.656;23.374;2023-02-22T02:00:35;94517.59;;;16.25;32.84
10462;BME280;5278;42.656;23.374;2023-02-22T02:03:08;94545.59;;;15.35;34.55
10462;BME280;5278;42.656;23.374;2023-02-22T02:05:37;94502.00;;;14.17;36.00
10462;BME280;5278;42.656;23.374;2023-02-22T02:08:15;94555.13;;;13.77;37.94
10462;BME280;5278;42.656;23.374;2023-02-22T02:10:44;94565.19;;;13.05;39.83
10462;BME280;5278;42.656;23.374;2023-02-22T02:13:15;94557.66;;;12.39;41.18
10462;BME280;5278;42.656;23.374;2023-02-22T02:15:41;94571.47;;;11.97;42.17
10462;BME280;5278;42.656;23.374;2023-02-22T02:18:10;94576.88;;;11.66;43.49
10462;BME280;5278;42.656;23.374;2023-02-22T02:20:47;94562.84;;;11.17;44.37
10462;BME280;5278;42.656;23.374;2023-02-22T02:23:57;94575.00;;;10.72;46.50
10462;BME280;5278;42.656;23.374;2023-02-22T02:26:54;94586.59;;;10.62;48.08
10462;BME280;5278;42.656;23.374;2023-02-22T02:29:43;94581.16;;;10.34;47.94
10462;BME280;5278;42.656;23.374;2023-02-22T02:32:36;94561.00;;;9.90;49.00
10462;BME280;5278;42.656;23.374;2023-02-22T02:35:08;94588.97;;;10.03;49.66
10462;BME280;5278;42.656;23.374;2023-02-22T02:37:46;94557.31;;;9.77;49.29
10462;BME280;5278;42.656;23.374;2023-02-22T02:40:19;94591.19;;;9.83;50.37
10462;BME280;5278;42.656;23.374;2023-02-22T02:43:05;94597.75;;;9.71;50.76
10462;BME280;5278;42.656;23.374;2023-02-22T02:45:41;94580.47;;;9.56;50.98
10462;BME280;5278;42.656;23.374;2023-02-22T02:48:14;94570.03;;;9.33;51.94
10462;BME280;5278;42.656;23.374;2023-02-22T02:50:45;94595.75;;;9.42;52.01
10462;BME280;5278;42.656;23.374;2023-02-22T02:53:17;94578.50;;;9.19;52.04
10462;BME280;5278;42.656;23.374;2023-02-22T02:55:45;94601.91;;;9.41;52.81
10462;BME280;5278;42.656;23.374;2023-02-22T02:58:17;94603.59;;;9.26;52.72
10462;BME280;5278;42.656;23.374;2023-02-22T03:00:44;94599.25;;;9.19;53.00
10462;BME280;5278;42.656;23.374;2023-02-22T03:06:20;94594.41;;;9.07;52.69
10462;BME280;5278;42.656;23.374;2023-02-22T03:08:56;94568.38;;;8.93;52.81
10462;BME280;5278;42.656;23.374;2023-02-22T03:11:27;94603.28;;;9.21;52.63
10462;BME280;5278;42.656;23.374;2023-02-22T03:14:00;94609.41;;;9.28;52.09
10462;BME280;5278;42.656;23.374;2023-02-22T03:16:34;94595.84;;;9.26;52.29
10462;BME280;5278;42.656;23.374;2023-02-22T03:19:08;94602.09;;;9.40;52.45
10462;BME280;5278;42.656;23.374;2023-02-22T03:21:43;94604.81;;;9.46;51.57
10462;BME280;5278;42.656;23.374;2023-02-22T03:24:17;94599.91;;;9.51;51.22
10462;BME280;5278;42.656;23.374;2023-02-22T03:26:51;94595.22;;;9.55;51.26
10462;BME280;5278;42.656;23.374;2023-02-22T03:29:21;94600.53;;;9.62;51.53
10462;BME280;5278;42.656;23.374;2023-02-22T03:31:53;94597.63;;;9.57;51.16
10462;BME280;5278;42.656;23.374;2023-02-22T03:34:31;94597.47;;;9.58;50.92
10462;BME280;5278;42.656;23.374;2023-02-22T03:37:04;94603.63;;;9.57;51.04
10462;BME280;5278;42.656;23.374;2023-02-22T03:39:35;94596.84;;;9.56;51.05
10462;BME280;5278;42.656;23.374;2023-02-22T03:42:07;94586.19;;;9.51;50.62
10462;BME280;5278;42.656;23.374;2023-02-22T03:44:37;94596.97;;;9.63;50.87
10462;BME280;5278;42.656;23.374;2023-02-22T03:47:10;94595.34;;;9.62;51.43
10462;BME280;5278;42.656;23.374;2023-02-22T03:49:44;94599.84;;;9.68;51.05
10462;BME280;5278;42.656;23.374;2023-02-22T03:52:12;94591.97;;;9.61;51.50
10462;BME280;5278;42.656;23.374;2023-02-22T03:54:40;94606.31;;;9.72;51.33
10462;BME280;5278;42.656;23.374;2023-02-22T03:57:11;94596.44;;;9.75;50.78
10462;BME280;5278;42.656;23.374;2023-02-22T03:59:40;94606.00;;;9.75;50.80
10462;BME280;5278;42.656;23.374;2023-02-22T04:02:07;94587.69;;;9.68;51.28
10462;BME280;5278;42.656;23.374;2023-02-22T04:04:34;94578.41;;;9.51;51.12
10462;BME280;5278;42.656;23.374;2023-02-22T04:07:03;94596.97;;;9.63;50.91
10462;BME280;5278;42.656;23.374;2023-02-22T04:09:29;94599.91;;;9.60;51.49
10462;BME280;5278;42.656;23.374;2023-02-22T04:11:57;94592.13;;;9.51;51.65
10462;BME280;5278;42.656;23.374;2023-02-22T04:14:25;94582.63;;;9.44;52.29
10462;BME280;5278;42.656;23.374;2023-02-22T04:16:52;94588.63;;;9.44;52.60
10462;BME280;5278;42.656;23.374;2023-02-22T04:19:18;94601.28;;;9.39;52.36
10462;BME280;5278;42.656;23.374;2023-02-22T04:21:45;94599.34;;;9.33;53.24
10462;BME280;5278;42.656;23.374;2023-02-22T04:24:14;94596.44;;;9.36;53.12
10462;BME280;5278;42.656;23.374;2023-02-22T04:26:41;94600.00;;;9.27;53.63
10462;BME280;5278;42.656;23.374;2023-02-22T04:29:07;94504.84;;;8.66;53.74
10462;BME280;5278;42.656;23.374;2023-02-22T04:31:34;94613.31;;;9.24;54.30
10462;BME280;5278;42.656;23.374;2023-02-22T04:34:01;94615.59;;;9.19;54.31
10462;BME280;5278;42.656;23.374;2023-02-22T04:36:29;94608.97;;;9.08;55.17
10462;BME280;5278;42.656;23.374;2023-02-22T04:38:56;94606.22;;;9.02;54.63
10462;BME280;5278;42.656;23.374;2023-02-22T04:41:25;94618.09;;;8.96;54.89
10462;BME280;5278;42.656;23.374;2023-02-22T04:43:52;94573.63;;;8.60;54.72
10462;BME280;5278;42.656;23.374;2023-02-22T04:46:19;94617.63;;;8.85;55.45
10462;BME280;5278;42.656;23.374;2023-02-22T04:48:46;94615.19;;;8.75;55.88
10462;BME280;5278;42.656;23.374;2023-02-22T04:51:13;94610.66;;;8.69;56.18
10462;BME280;5278;42.656;23.374;2023-02-22T04:53:42;94616.66;;;8.53;56.23
10462;BME280;5278;42.656;23.374;2023-02-22T04:56:09;94612.13;;;8.39;56.85
10462;BME280;5278;42.656;23.374;2023-02-22T04:58:37;94598.19;;;8.32;57.54
10462;BME280;5278;42.656;23.374;2023-02-22T05:01:04;94611.47;;;8.37;56.05
10462;BME280;5278;42.656;23.374;2023-02-22T05:03:32;94542.84;;;7.93;56.29
10462;BME280;5278;42.656;23.374;2023-02-22T05:06:00;94617.31;;;8.31;56.92
10462;BME280;5278;42.656;23.374;2023-02-22T05:08:26;94609.81;;;8.20;57.24
10462;BME280;5278;42.656;23.374;2023-02-22T05:10:54;94618.69;;;8.09;57.48
10462;BME280;5278;42.656;23.374;2023-02-22T05:13:21;94586.13;;;7.74;58.23
10462;BME280;5278;42.656;23.374;2023-02-22T05:15:49;94632.56;;;7.92;58.58
10462;BME280;5278;42.656;23.374;2023-02-22T05:18:16;94606.34;;;7.71;59.84
10462;BME280;5278;42.656;23.374;2023-02-22T05:20:43;94613.00;;;7.82;60.00
10462;BME280;5278;42.656;23.374;2023-02-22T05:23:10;94625.94;;;7.90;59.75
10462;BME280;5278;42.656;23.374;2023-02-22T05:25:36;94635.00;;;7.94;60.58
10462;BME280;5278;42.656;23.374;2023-02-22T05:28:08;94573.81;;;7.60;60.37
10462;BME280;5278;42.656;23.374;2023-02-22T05:30:37;94622.06;;;7.94;60.93
10462;BME280;5278;42.656;23.374;2023-02-22T05:33:07;94641.16;;;8.01;59.90
10462;BME280;5278;42.656;23.374;2023-02-22T05:35:34;94623.22;;;8.07;59.67
10462;BME280;5278;42.656;23.374;2023-02-22T05:38:02;94636.38;;;8.38;60.01
10462;BME280;5278;42.656;23.374;2023-02-22T05:40:29;94650.97;;;8.80;58.32
10462;BME280;5278;42.656;23.374;2023-02-22T05:42:57;94637.50;;;9.08;55.76
10462;BME280;5278;42.656;23.374;2023-02-22T05:45:27;94651.47;;;9.55;54.07
10462;BME280;5278;42.656;23.374;2023-02-22T05:47:54;94651.59;;;10.00;51.66
10462;BME280;5278;42.656;23.374;2023-02-22T05:50:23;94657.22;;;10.43;50.22
10462;BME280;5278;42.656;23.374;2023-02-22T05:52:51;94657.72;;;10.84;49.19
10462;BME280;5278;42.656;23.374;2023-02-22T05:55:21;94649.03;;;11.29;48.17
10462;BME280;5278;42.656;23.374;2023-02-22T05:57:49;94648.22;;;11.87;46.79
10462;BME280;5278;42.656;23.374;2023-02-22T06:00:19;94655.31;;;12.43;44.73
10462;BME280;5278;42.656;23.374;2023-02-22T06:02:53;94650.16;;;12.92;42.86
10462;BME280;5278;42.656;23.374;2023-02-22T06:05:20;94649.34;;;13.13;41.80
10462;BME280;5278;42.656;23.374;2023-02-22T06:07:49;94654.69;;;13.33;40.60
10462;BME280;5278;42.656;23.374;2023-02-22T06:10:17;94597.47;;;13.31;40.38
10462;BME280;5278;42.656;23.374;2023-02-22T06:12:44;94641.69;;;14.21;39.09
10462;BME280;5278;42.656;23.374;2023-02-22T06:15:11;94625.75;;;14.77;37.95
10462;BME280;5278;42.656;23.374;2023-02-22T06:17:38;94638.84;;;15.36;36.50
10462;BME280;5278;42.656;23.374;2023-02-22T06:20:07;94640.59;;;15.82;35.91
10462;BME280;5278;42.656;23.374;2023-02-22T06:22:35;94518.97;;;15.45;34.53
10462;BME280;5278;42.656;23.374;2023-02-22T06:25:05;94535.31;;;15.98;35.43
10462;BME280;5278;42.656;23.374;2023-02-22T06:27:33;94622.41;;;17.07;33.93
10462;BME280;5278;42.656;23.374;2023-02-22T06:30:01;94622.09;;;17.65;32.81
10462;BME280;5278;42.656;23.374;2023-02-22T06:32:28;94631.22;;;17.99;32.29
10462;BME280;5278;42.656;23.374;2023-02-22T06:34:55;94631.28;;;18.29;31.67
10462;BME280;5278;42.656;23.374;2023-02-22T06:37:22;94637.97;;;18.61;30.95
10462;BME280;5278;42.656;23.374;2023-02-22T06:39:51;94637.16;;;18.90;30.56
10462;BME280;5278;42.656;23.374;2023-02-22T06:42:20;94625.78;;;19.31;29.86
10462;BME280;5278;42.656;23.374;2023-02-22T06:44:47;94626.84;;;19.54;29.38
10462;BME280;5278;42.656;23.374;2023-02-22T06:47:14;94605.72;;;19.89;29.02
10462;BME280;5278;42.656;23.374;2023-02-22T06:49:41;94636.78;;;20.50;28.29
10462;BME280;5278;42.656;23.374;2023-02-22T06:52:09;94634.63;;;20.75;27.88
10462;BME280;5278;42.656;23.374;2023-02-22T06:54:37;94627.94;;;21.01;27.78
10462;BME280;5278;42.656;23.374;2023-02-22T06:57:04;94581.66;;;20.82;27.58
10462;BME280;5278;42.656;23.374;2023-02-22T06:59:34;94620.94;;;21.57;27.06
10462;BME280;5278;42.656;23.374;2023-02-22T07:02:03;94614.81;;;21.73;26.69
10462;BME280;5278;42.656;23.374;2023-02-22T07:04:31;94627.88;;;22.18;26.04
10462;BME280;5278;42.656;23.374;2023-02-22T07:06:58;94627.63;;;22.41;25.76
10462;BME280;5278;42.656;23.374;2023-02-22T07:09:26;94631.44;;;22.72;25.19
10462;BME280;5278;42.656;23.374;2023-02-22T07:11:52;94622.50;;;23.05;25.07
10462;BME280;5278;42.656;23.374;2023-02-22T07:14:20;94620.09;;;23.72;23.96
10462;BME280;5278;42.656;23.374;2023-02-22T07:16:49;94619.25;;;24.09;23.65
10462;BME280;5278;42.656;23.374;2023-02-22T07:19:16;94620.25;;;24.44;23.00
10462;BME280;5278;42.656;23.374;2023-02-22T07:21:43;94631.50;;;24.82;22.48
10462;BME280;5278;42.656;23.374;2023-02-22T07:24:12;94622.19;;;24.74;22.65
10462;BME280;5278;42.656;23.374;2023-02-22T07:26:40;94635.22;;;24.86;22.59
10462;BME280;5278;42.656;23.374;2023-02-22T07:29:07;94632.13;;;25.09;22.27
10462;BME280;5278;42.656;23.374;2023-02-22T07:31:36;94643.84;;;25.54;22.07
10462;BME280;5278;42.656;23.374;2023-02-22T07:34:06;94628.13;;;25.98;21.49
10462;BME280;5278;42.656;23.374;2023-02-22T07:36:34;94603.59;;;26.01;21.15
10462;BME280;5278;42.656;23.374;2023-02-22T07:39:01;94622.13;;;26.41;20.45
10462;BME280;5278;42.656;23.374;2023-02-22T07:41:28;94612.38;;;26.76;20.38
10462;BME280;5278;42.656;23.374;2023-02-22T07:43:55;94588.53;;;27.00;19.87
10462;BME280;5278;42.656;23.374;2023-02-22T07:46:22;94611.66;;;27.77;22.46
10462;BME280;5278;42.656;23.374;2023-02-22T07:48:49;94607.25;;;28.62;20.16
10462;BME280;5278;42.656;23.374;2023-02-22T07:51:18;94606.59;;;29.32;19.21
10462;BME280;5278;42.656;23.374;2023-02-22T07:53:45;94580.81;;;29.68;19.03
10462;BME280;5278;42.656;23.374;2023-02-22T07:56:12;94604.56;;;30.48;17.85
10462;BME280;5278;42.656;23.374;2023-02-22T07:58:40;94610.84;;;30.93;17.40
10462;BME280;5278;42.656;23.374;2023-02-22T08:01:06;94598.56;;;31.37;17.28
10462;BME280;5278;42.656;23.374;2023-02-22T08:03:34;94504.13;;;31.21;16.94
10462;BME280;5278;42.656;23.374;2023-02-22T08:06:03;94580.47;;;32.04;17.00
10462;BME280;5278;42.656;23.374;2023-02-22T08:08:33;94582.22;;;32.48;16.31
10462;BME280;5278;42.656;23.374;2023-02-22T08:11:01;94599.47;;;32.95;16.05
10462;BME280;5278;42.656;23.374;2023-02-22T08:13:28;94593.03;;;33.22;17.13
10462;BME280;5278;42.656;23.374;2023-02-22T08:15:55;94586.16;;;33.59;16.32
10462;BME280;5278;42.656;23.374;2023-02-22T08:18:23;94577.91;;;33.81;16.32
10462;BME280;5278;42.656;23.374;2023-02-22T08:20:52;94600.13;;;33.69;19.21
10462;BME280;5278;42.656;23.374;2023-02-22T08:23:21;94591.75;;;34.09;16.65
10462;BME280;5278;42.656;23.374;2023-02-22T08:25:51;94586.50;;;34.12;16.15
10462;BME280;5278;42.656;23.374;2023-02-22T08:28:20;94588.81;;;34.40;16.54
10462;BME280;5278;42.656;23.374;2023-02-22T08:30:47;94584.44;;;34.85;15.12
10462;BME280;5278;42.656;23.374;2023-02-22T08:33:15;94581.69;;;35.15;15.17
10462;BME280;5278;42.656;23.374;2023-02-22T08:35:44;94581.22;;;34.92;14.93
10462;BME280;5278;42.656;23.374;2023-02-22T08:38:17;94585.69;;;34.58;14.36
10462;BME280;5278;42.656;23.374;2023-02-22T08:40:46;94560.50;;;34.46;14.44
10462;BME280;5278;42.656;23.374;2023-02-22T08:43:16;94582.56;;;35.07;14.16
10462;BME280;5278;42.656;23.374;2023-02-22T08:45:44;94564.16;;;35.21;13.83
10462;BME280;5278;42.656;23.374;2023-02-22T08:48:11;94581.16;;;35.42;14.29
10462;BME280;5278;42.656;23.374;2023-02-22T08:50:38;94576.50;;;35.63;14.14
10462;BME280;5278;42.656;23.374;2023-02-22T08:53:07;94578.41;;;35.30;14.27
10462;BME280;5278;42.656;23.374;2023-02-22T08:55:36;94568.66;;;35.70;13.89
10462;BME280;5278;42.656;23.374;2023-02-22T08:58:04;94569.47;;;35.71;13.68
10462;BME280;5278;42.656;23.374;2023-02-22T09:00:36;94546.56;;;35.68;13.60
10462;BME280;5278;42.656;23.374;2023-02-22T09:03:05;94571.38;;;36.40;13.61
10462;BME280;5278;42.656;23.374;2023-02-22T09:05:32;94571.94;;;36.70;13.07
10462;BME280;5278;42.656;23.374;2023-02-22T09:07:59;94537.41;;;36.54;13.22
10462;BME280;5278;42.656;23.374;2023-02-22T09:10:31;94563.50;;;36.71;12.81
10462;BME280;5278;42.656;23.374;2023-02-22T09:13:00;94538.50;;;36.53;12.86
10462;BME280;5278;42.656;23.374;2023-02-22T09:15:28;94558.63;;;36.40;13.93
10462;BME280;5278;42.656;23.374;2023-02-22T09:17:57;94556.38;;;35.73;14.13
10462;BME280;5278;42.656;23.374;2023-02-22T09:20:25;94566.38;;;35.39;14.31
10462;BME280;5278;42.656;23.374;2023-02-22T09:22:53;94547.16;;;35.20;14.11
10462;BME280;5278;42.656;23.374;2023-02-22T09:25:22;94546.19;;;35.37;14.40
10462;BME280;5278;42.656;23.374;2023-02-22T09:27:50;94549.84;;;35.74;14.30
10462;BME280;5278;42.656;23.374;2023-02-22T09:30:22;94539.94;;;35.57;14.17
10462;BME280;5278;42.656;23.374;2023-02-22T09:32:53;94554.47;;;35.20;13.91
10462;BME280;5278;42.656;23.374;2023-02-22T09:35:22;94548.59;;;35.18;14.43
10462;BME280;5278;42.656;23.374;2023-02-22T09:37:55;94555.19;;;35.29;13.84
10462;BME280;5278;42.656;23.374;2023-02-22T09:40:23;94538.91;;;34.96;14.17
10462;BME280;5278;42.656;23.374;2023-02-22T09:43:07;94550.81;;;35.16;14.26
10462;BME280;5278;42.656;23.374;2023-02-22T09:45:39;94547.38;;;35.48;13.87
10462;BME280;5278;42.656;23.374;2023-02-22T09:48:11;94541.63;;;35.82;13.81
10462;BME280;5278;42.656;23.374;2023-02-22T09:50:44;94543.41;;;35.78;13.61
10462;BME280;5278;42.656;23.374;2023-02-22T09:53:21;94543.09;;;35.80;13.85
10462;BME280;5278;42.656;23.374;2023-02-22T09:55:56;94534.59;;;36.14;13.33
10462;BME280;5278;42.656;23.374;2023-02-22T09:58:30;94533.75;;;36.02;13.85
10462;BME280;5278;42.656;23.374;2023-02-22T10:01:08;94540.50;;;35.71;13.88
10462;BME280;5278;42.656;23.374;2023-02-22T10:03:48;94528.22;;;35.53;13.47
10462;BME280;5278;42.656;23.374;2023-02-22T10:06:20;94518.84;;;35.71;14.05
10462;BME280;5278;42.656;23.374;2023-02-22T10:08:48;94528.47;;;35.60;13.99
10462;BME280;5278;42.656;23.374;2023-02-22T10:11:27;94523.31;;;35.34;13.64
10462;BME280;5278;42.656;23.374;2023-02-22T10:14:21;94513.13;;;34.98;13.82
10462;BME280;5278;42.656;23.374;2023-02-22T10:16:54;94505.31;;;34.85;13.89
10462;BME280;5278;42.656;23.374;2023-02-22T10:19:31;94496.75;;;34.53;14.67
10462;BME280;5278;42.656;23.374;2023-02-22T10:22:26;94486.09;;;33.98;14.44
10462;BME280;5278;42.656;23.374;2023-02-22T10:24:59;94500.31;;;34.16;14.53
10462;BME280;5278;42.656;23.374;2023-02-22T10:27:32;94500.13;;;33.83;14.55
10462;BME280;5278;42.656;23.374;2023-02-22T10:30:03;94487.09;;;33.47;14.85
10462;BME280;5278;42.656;23.374;2023-02-22T10:32:39;94482.50;;;33.13;15.05
10462;BME280;5278;42.656;23.374;2023-02-22T10:35:19;94478.38;;;33.42;15.59
10462;BME280;5278;42.656;23.374;2023-02-22T10:38:05;94475.97;;;33.95;14.83
10462;BME280;5278;42.656;23.374;2023-02-22T10:40:39;94461.38;;;35.09;14.28
10462;BME280;5278;42.656;23.374;2023-02-22T10:43:09;94460.53;;;35.62;13.89
10462;BME280;5278;42.656;23.374;2023-02-22T10:45:37;94453.81;;;35.47;13.17
10462;BME280;5278;42.656;23.374;2023-02-22T10:48:06;94445.81;;;34.52;14.02
10462;BME280;5278;42.656;23.374;2023-02-22T10:50:37;94451.56;;;34.12;14.58
10462;BME280;5278;42.656;23.374;2023-02-22T10:53:07;94422.13;;;33.99;14.42
10462;BME280;5278;42.656;23.374;2023-02-22T10:55:34;94452.72;;;33.82;14.72
10462;BME280;5278;42.656;23.374;2023-02-22T10:58:05;94441.66;;;33.58;15.11
10462;BME280;5278;42.656;23.374;2023-02-22T11:00:34;94443.41;;;33.71;14.81
10462;BME280;5278;42.656;23.374;2023-02-22T11:03:16;94435.19;;;33.88;15.20
10462;BME280;5278;42.656;23.374;2023-02-22T11:05:44;94381.19;;;33.76;14.91
10462;BME280;5278;42.656;23.374;2023-02-22T11:08:23;94435.19;;;33.88;14.72
10462;BME280;5278;42.656;23.374;2023-02-22T11:10:55;94438.78;;;33.63;15.02
10462;BME280;5278;42.656;23.374;2023-02-22T11:13:25;94426.31;;;33.88;15.33
10462;BME280;5278;42.656;23.374;2023-02-22T11:15:53;94418.00;;;34.31;14.68
10462;BME280;5278;42.656;23.374;2023-02-22T11:18:25;94398.34;;;34.63;14.19
10462;BME280;5278;42.656;23.374;2023-02-22T11:21:03;94395.47;;;35.01;14.19
10462;BME280;5278;42.656;23.374;2023-02-22T11:23:34;94415.09;;;35.55;13.88
10462;BME280;5278;42.656;23.374;2023-02-22T11:26:06;94407.63;;;35.52;13.41
10462;BME280;5278;42.656;23.374;2023-02-22T11:28:35;94414.06;;;35.35;14.01
10462;BME280;5278;42.656;23.374;2023-02-22T11:31:12;94404.72;;;35.57;13.41
10462;BME280;5278;42.656;23.374;2023-02-22T11:33:48;94403.38;;;35.63;13.26
10462;BME280;5278;42.656;23.374;2023-02-22T11:36:29;94406.78;;;35.72;13.65
10462;BME280;5278;42.656;23.374;2023-02-22T11:38:59;94398.47;;;35.20;13.58
10462;BME280;5278;42.656;23.374;2023-02-22T11:41:33;94405.50;;;35.13;13.96
10462;BME280;5278;42.656;23.374;2023-02-22T11:44:20;94371.75;;;35.07;13.96
10462;BME280;5278;42.656;23.374;2023-02-22T11:46:48;94395.09;;;35.23;14.15
10462;BME280;5278;42.656;23.374;2023-02-22T11:49:15;94385.00;;;34.99;14.01
10462;BME280;5278;42.656;23.374;2023-02-22T11:51:55;94362.06;;;34.73;14.10
10462;BME280;5278;42.656;23.374;2023-02-22T11:54:42;94383.81;;;34.76;13.68
10462;BME280;5278;42.656;23.374;2023-02-22T11:57:24;94358.66;;;34.43;14.41
10462;BME280;5278;42.656;23.374;2023-02-22T12:00:04;94376.19;;;34.37;14.56
10462;BME280;5278;42.656;23.374;2023-02-22T12:02:58;94360.97;;;34.11;14.50
10462;BME280;5278;42.656;23.374;2023-02-22T12:05:55;94383.84;;;34.05;14.46
10462;BME280;5278;42.656;23.374;2023-02-22T12:08:34;94360.91;;;33.70;14.58
10462;BME280;5278;42.656;23.374;2023-02-22T12:11:08;94370.53;;;33.80;14.30
10462;BME280;5278;42.656;23.374;2023-02-22T12:13:56;94338.75;;;33.56;14.69
10462;BME280;5278;42.656;23.374;2023-02-22T12:16:31;94366.97;;;33.20;15.11
10462;BME280;5278;42.656;23.374;2023-02-22T12:19:10;94356.47;;;32.64;15.25
10462;BME280;5278;42.656;23.374;2023-02-22T12:21:41;94369.88;;;31.78;15.90
10462;BME280;5278;42.656;23.374;2023-02-22T12:24:13;94369.00;;;30.90;16.27
10462;BME280;5278;42.656;23.374;2023-02-22T12:26:46;94359.53;;;30.61;16.57
10462;BME280;5278;42.656;23.374;2023-02-22T12:29:22;94348.78;;;30.39;16.88
10462;BME280;5278;42.656;23.374;2023-02-22T12:31:56;94347.72;;;30.62;16.78
10462;BME280;5278;42.656;23.374;2023-02-22T12:34:31;94352.81;;;30.50;17.17
10462;BME280;5278;42.656;23.374;2023-02-22T12:37:09;94338.19;;;30.56;16.67
10462;BME280;5278;42.656;23.374;2023-02-22T12:39:45;94346.72;;;30.36;17.03
10462;BME280;5278;42.656;23.374;2023-02-22T12:42:20;94344.25;;;30.26;16.93
10462;BME280;5278;42.656;23.374;2023-02-22T12:44:53;94332.31;;;29.74;16.88
10462;BME280;5278;42.656;23.374;2023-02-22T12:47:28;94341.22;;;28.87;18.00
10462;BME280;5278;42.656;23.374;2023-02-22T12:50:02;94351.34;;;28.25;18.74
10462;BME280;5278;42.656;23.374;2023-02-22T12:52:40;94357.25;;;28.04;18.58
10462;BME280;5278;42.656;23.374;2023-02-22T12:55:13;94337.53;;;27.81;18.76
10462;BME280;5278;42.656;23.374;2023-02-22T12:57:48;94331.72;;;27.79;19.06
10462;BME280;5278;42.656;23.374;2023-02-22T13:00:21;94338.03;;;27.40;19.59
10462;BME280;5278;42.656;23.374;2023-02-22T13:03:11;94335.19;;;27.13;19.50
10462;BME280;5278;42.656;23.374;2023-02-22T13:05:44;94334.56;;;26.69;20.02
10462;BME280;5278;42.656;23.374;2023-02-22T13:08:24;94325.69;;;25.71;20.66
10462;BME280;5278;42.656;23.374;2023-02-22T13:10:56;94334.00;;;24.96;21.67
10462;BME280;5278;42.656;23.374;2023-02-22T13:13:35;94315.50;;;24.25;22.05
10462;BME280;5278;42.656;23.374;2023-02-22T13:16:11;94331.41;;;24.15;22.14
10462;BME280;5278;42.656;23.374;2023-02-22T13:18:50;94327.97;;;24.04;22.56
10462;BME280;5278;42.656;23.374;2023-02-22T13:21:23;94331.91;;;23.91;22.57
10462;BME280;5278;42.656;23.374;2023-02-22T13:23:57;94324.72;;;23.72;22.72
10462;BME280;5278;42.656;23.374;2023-02-22T13:26:36;94334.53;;;23.66;23.02